Sahiwal Weather



Sahiwal's Current Weather

Temprature 16.41o overcast clouds

overcast clouds

Rain: 0 %

Min Temprature16.41o
Max Temprature16.41o
Humidity28
Wind Speed2.41 m/h
Sun Rise06:55:13
Sun Set17:07:01
Current Time: 12-Dec-2019 01:27:13
Lat/Lon: 30.67, 73.11




Sahiwal's Geo Location



Sahiwal's Weather Forecast

Time Overall Temp Min Temp Max Temp Humidity Wind Speed Rain
12-Dec-2019 (Thu)
02:00:00 overcast clouds 16.410 16.410 16.410 28 2.41 m/h 0 %
05:00:00 overcast clouds 16.250 16.250 16.250 31 2.59 m/h 0 %
08:00:00 light rain 12.730 12.730 12.730 86 4.28 m/h 150 %
11:00:00 moderate rain 12.350 12.350 12.350 90 1.93 m/h 688 %
14:00:00 moderate rain 12.440 12.440 12.440 89 5.1 m/h 844 %
17:00:00 light rain 11.960 11.960 11.960 87 3.84 m/h 212 %
20:00:00 light rain 12.200 12.200 12.200 89 3.57 m/h 144 %
23:00:00 light rain 12.120 12.120 12.120 89 3.42 m/h 44 %
13-Dec-2019 (Fri)
02:00:00 overcast clouds 11.860 11.860 11.860 89 2.47 m/h 0 %
05:00:00 broken clouds 10.330 10.330 10.330 94 2.41 m/h 0 %
08:00:00 clear sky 10.840 10.840 10.840 89 2.07 m/h 0 %
11:00:00 clear sky 15.270 15.270 15.270 63 2.83 m/h 0 %
14:00:00 clear sky 17.390 17.390 17.390 53 2.66 m/h 0 %
17:00:00 few clouds 15.350 15.350 15.350 60 1.8 m/h 0 %
20:00:00 clear sky 13.620 13.620 13.620 66 0.84 m/h 0 %
23:00:00 clear sky 12.870 12.870 12.870 68 0.51 m/h 0 %
14-Dec-2019 (Sat)
02:00:00 clear sky 12.140 12.140 12.140 71 1.33 m/h 0 %
05:00:00 clear sky 11.620 11.620 11.620 74 1.49 m/h 0 %
08:00:00 clear sky 12.310 12.310 12.310 73 2.02 m/h 0 %
11:00:00 clear sky 17.400 17.400 17.400 52 2.37 m/h 0 %
14:00:00 clear sky 19.170 19.170 19.170 43 1.56 m/h 0 %
17:00:00 clear sky 16.520 16.520 16.520 51 1.39 m/h 0 %
20:00:00 scattered clouds 14.470 14.470 14.470 58 2.14 m/h 0 %
23:00:00 broken clouds 13.880 13.880 13.880 60 1.28 m/h 0 %
15-Dec-2019 (Sun)
02:00:00 overcast clouds 13.080 13.080 13.080 62 1.51 m/h 0 %
05:00:00 broken clouds 12.420 12.420 12.420 64 1.46 m/h 0 %
08:00:00 broken clouds 12.930 12.930 12.930 65 1.68 m/h 0 %
11:00:00 scattered clouds 18.050 18.050 18.050 47 2.96 m/h 0 %
14:00:00 clear sky 19.800 19.800 19.800 38 2.81 m/h 0 %
17:00:00 clear sky 16.880 16.880 16.880 45 1.31 m/h 0 %
20:00:00 clear sky 14.670 14.670 14.670 51 1.82 m/h 0 %
23:00:00 clear sky 13.530 13.530 13.530 54 1.91 m/h 0 %
16-Dec-2019 (Mon)
02:00:00 clear sky 12.370 12.370 12.370 56 1.67 m/h 0 %
05:00:00 clear sky 11.470 11.470 11.470 59 1.97 m/h 0 %
08:00:00 clear sky 12.070 12.070 12.070 60 1.58 m/h 0 %
11:00:00 clear sky 17.770 17.770 17.770 42 2.32 m/h 0 %
14:00:00 clear sky 19.910 19.910 19.910 31 3.17 m/h 0 %
17:00:00 clear sky 16.670 16.670 16.670 37 1.64 m/h 0 %
20:00:00 clear sky 14.010 14.010 14.010 43 0.84 m/h 0 %
23:00:00 clear sky 13.120 13.120 13.120 44 1.67 m/h 0 %

Famous Cities (61)